Terminal Aerodrome Forecast
Issued by NWS

Home | Current Version | Previous Version | Text Only | Print | Product List | Glossary On
Versions: 1 2 3 4 5 6 7 8 9 10 11 12 13 14 15 16 17 18 19 20 21 22 23 24 25 26
669
FTUS41 KCAR 131720
TAFBHB
TAF
KBHB 131720Z 1318/1418 01011G17KT P6SM OVC030
     FM132200 01010KT 2SM -SN OVC025
     FM140000 34014G23KT 5SM -SN OVC030
     FM141100 34015G23KT P6SM BKN060
      AMD LTD TO CLD VIS AND WIND=

USA.gov is the U.S. government's official web portal to all federal, state and local government web resources and services.